createdAt,value
2023-02-21T00:00:11.648Z,7.50
2023-02-21T00:03:19.460Z,6.72
2023-02-21T00:06:27.307Z,6.90
2023-02-21T00:09:31.632Z,4.68
2023-02-21T00:12:35.947Z,6.60
2023-02-21T00:15:40.274Z,7.32
2023-02-21T00:18:44.580Z,4.88
2023-02-21T00:21:49.476Z,7.45
2023-02-21T00:24:53.687Z,5.75
2023-02-21T00:27:57.910Z,5.22
2023-02-21T00:31:02.574Z,6.35
2023-02-21T00:34:07.076Z,5.78
2023-02-21T00:37:13.346Z,5.57
2023-02-21T00:40:17.759Z,6.57
2023-02-21T00:43:23.392Z,5.07
2023-02-21T00:46:28.844Z,5.75
2023-02-21T00:49:33.045Z,6.20
2023-02-21T00:52:37.217Z,5.80
2023-02-21T00:55:41.545Z,6.13
2023-02-21T00:58:46.026Z,6.50
2023-02-21T01:01:50.330Z,5.00
2023-02-21T01:04:55.012Z,5.03
2023-02-21T01:08:00.037Z,8.18
2023-02-21T01:11:06.298Z,6.28
2023-02-21T01:14:10.573Z,5.72
2023-02-21T01:17:15.339Z,5.53
2023-02-21T01:20:19.900Z,5.55
2023-02-21T01:23:24.268Z,4.13
2023-02-21T01:26:28.968Z,5.50
2023-02-21T01:29:35.260Z,5.03
2023-02-21T01:32:39.361Z,5.15
2023-02-21T01:35:43.754Z,2.95
2023-02-21T01:38:47.773Z,2.40
2023-02-21T01:41:51.678Z,3.50
2023-02-21T01:45:03.951Z,4.80
2023-02-21T01:48:10.560Z,5.03
2023-02-21T01:51:16.589Z,4.72
2023-02-21T01:54:21.771Z,3.10
2023-02-21T01:57:27.008Z,5.38
2023-02-21T02:00:32.629Z,3.53
2023-02-21T02:03:38.577Z,3.72
2023-02-21T02:06:42.751Z,3.85
2023-02-21T02:09:47.059Z,2.90
2023-02-21T02:12:35.757Z,3.53
2023-02-21T02:15:24.363Z,2.45
2023-02-21T02:18:18.940Z,3.55
2023-02-21T02:21:19.703Z,3.05
2023-02-21T02:24:47.454Z,6.00
2023-02-21T02:27:53.268Z,3.70
2023-02-21T02:31:16.523Z,2.28
2023-02-21T02:34:31.137Z,3.33
2023-02-21T02:37:25.946Z,2.63
2023-02-21T02:40:27.664Z,3.13
2023-02-21T02:43:21.781Z,2.38
2023-02-21T02:46:29.414Z,3.67
2023-02-21T02:49:19.772Z,4.43
2023-02-21T02:52:08.876Z,4.55
2023-02-21T02:55:06.435Z,2.00
2023-02-21T02:57:52.642Z,3.13
2023-02-21T03:00:42.721Z,6.95
2023-02-21T03:03:35.251Z,4.05
2023-02-21T03:06:44.343Z,2.53
2023-02-21T03:09:38.292Z,2.20
2023-02-21T03:12:51.729Z,3.22
2023-02-21T03:15:48.387Z,2.10
2023-02-21T03:18:39.256Z,4.20
2023-02-21T03:21:38.550Z,3.45
2023-02-21T03:24:28.461Z,4.20
2023-02-21T03:27:15.529Z,4.55
2023-02-21T03:30:24.372Z,2.83
2023-02-21T03:33:11.451Z,6.03
2023-02-21T03:35:59.609Z,2.05
2023-02-21T03:38:45.176Z,2.75
2023-02-21T03:41:31.448Z,5.40
2023-02-21T03:44:18.139Z,3.78
2023-02-21T03:47:04.334Z,4.10
2023-02-21T03:49:50.028Z,4.00
2023-02-21T03:52:36.624Z,3.80
2023-02-21T03:55:22.538Z,4.55
2023-02-21T03:58:08.479Z,3.38
2023-02-21T04:00:56.120Z,4.22
2023-02-21T04:03:41.879Z,3.00
2023-02-21T04:06:27.788Z,2.63
2023-02-21T04:09:14.439Z,3.30
2023-02-21T04:12:01.192Z,4.32
2023-02-21T04:14:46.506Z,2.67
2023-02-21T04:17:32.156Z,2.30
2023-02-21T04:20:19.385Z,2.45
2023-02-21T04:23:09.701Z,3.97
2023-02-21T04:25:55.780Z,3.28
2023-02-21T04:28:48.906Z,4.13
2023-02-21T04:31:35.141Z,3.05
2023-02-21T04:34:26.019Z,3.33
2023-02-21T04:37:11.933Z,3.42
2023-02-21T04:40:01.027Z,4.20
2023-02-21T04:42:51.999Z,4.18
2023-02-21T04:45:37.368Z,2.78
2023-02-21T04:48:23.203Z,3.28
2023-02-21T04:51:15.764Z,3.78
2023-02-21T04:54:01.289Z,3.17
2023-02-21T04:56:46.599Z,3.92
2023-02-21T04:59:31.940Z,3.30
2023-02-21T05:02:17.304Z,4.93
2023-02-21T05:05:03.342Z,4.35
2023-02-21T05:07:51.710Z,3.13
2023-02-21T05:10:45.518Z,4.32
2023-02-21T05:13:31.501Z,3.20
2023-02-21T05:16:17.206Z,4.90
2023-02-21T05:19:03.152Z,4.63
2023-02-21T05:21:48.498Z,3.50
2023-02-21T05:24:34.672Z,4.50
2023-02-21T05:27:21.760Z,3.00
2023-02-21T05:30:08.109Z,3.75
2023-02-21T05:32:53.773Z,3.40
2023-02-21T05:35:39.658Z,4.90
2023-02-21T05:38:26.052Z,4.60
2023-02-21T05:41:12.807Z,4.00
2023-02-21T05:43:58.702Z,3.53
2023-02-21T05:46:51.141Z,3.72
2023-02-21T05:49:37.188Z,3.40
2023-02-21T05:55:51.366Z,4.60
2023-02-21T05:58:38.750Z,4.38
2023-02-21T06:08:43.086Z,4.38
2023-02-21T06:14:17.515Z,5.00
2023-02-21T06:17:03.549Z,4.78
2023-02-21T06:19:49.327Z,3.03
2023-02-21T06:22:34.711Z,4.95
2023-02-21T06:25:20.765Z,3.25
2023-02-21T06:28:06.330Z,5.38
2023-02-21T06:30:51.950Z,3.47
2023-02-21T06:33:37.697Z,2.35
2023-02-21T06:36:27.492Z,4.25
2023-02-21T06:39:12.998Z,3.72
2023-02-21T06:41:58.489Z,4.15
2023-02-21T06:44:47.631Z,4.25
2023-02-21T06:47:33.036Z,3.17
2023-02-21T06:50:18.328Z,3.03
2023-02-21T06:53:03.653Z,3.65
2023-02-21T06:55:49.040Z,3.65
2023-02-21T06:58:34.725Z,3.70
2023-02-21T07:01:20.889Z,8.57
2023-02-21T07:04:06.384Z,2.88
2023-02-21T07:06:52.501Z,4.78
2023-02-21T07:09:38.142Z,2.40
2023-02-21T07:12:24.243Z,2.92
2023-02-21T07:15:10.237Z,8.43
2023-02-21T07:17:56.148Z,3.95
2023-02-21T07:20:41.782Z,3.15
2023-02-21T07:23:27.177Z,5.50
2023-02-21T07:26:13.458Z,4.97
2023-02-21T07:28:59.466Z,5.15
2023-02-21T07:31:44.948Z,3.85
2023-02-21T07:34:30.361Z,3.63
2023-02-21T07:37:15.919Z,4.00
2023-02-21T07:40:02.138Z,5.72
2023-02-21T07:42:48.496Z,3.03
2023-02-21T07:45:34.273Z,2.92
2023-02-21T07:48:20.097Z,5.75
2023-02-21T07:51:07.656Z,4.30
2023-02-21T07:56:46.326Z,3.67
2023-02-21T07:59:31.861Z,3.47
2023-02-21T08:02:17.408Z,3.90
2023-02-21T08:05:02.702Z,4.35
2023-02-21T08:07:52.843Z,5.25
2023-02-21T08:10:38.621Z,3.97
2023-02-21T08:13:24.398Z,5.50
2023-02-21T08:16:10.259Z,4.40
2023-02-21T08:18:56.837Z,3.92
2023-02-21T08:25:21.399Z,4.07
2023-02-21T08:28:07.299Z,4.28
2023-02-21T08:30:53.901Z,6.80
2023-02-21T08:33:39.331Z,4.43
2023-02-21T08:36:32.037Z,4.88
2023-02-21T08:39:17.709Z,4.07
2023-02-21T08:42:03.768Z,6.35
2023-02-21T08:44:49.754Z,5.07
2023-02-21T08:47:36.345Z,6.55
2023-02-21T08:50:23.569Z,5.03
2023-02-21T08:53:13.752Z,7.90
2023-02-21T08:56:00.384Z,4.78
2023-02-21T08:58:46.215Z,8.45
2023-02-21T09:01:35.897Z,5.63
2023-02-21T09:04:23.720Z,7.65
2023-02-21T09:07:12.960Z,2.90
2023-02-21T09:10:01.069Z,6.05
2023-02-21T09:12:46.620Z,3.83
2023-02-21T09:15:32.139Z,6.10
2023-02-21T09:18:17.681Z,3.97
2023-02-21T09:21:03.389Z,3.83
2023-02-21T09:23:52.655Z,4.57
2023-02-21T09:26:38.049Z,4.47
2023-02-21T09:29:26.551Z,5.72
2023-02-21T09:32:14.276Z,6.32
2023-02-21T09:35:00.139Z,3.95
2023-02-21T09:37:46.444Z,4.65
2023-02-21T09:40:41.738Z,4.47
2023-02-21T09:43:32.739Z,6.57
2023-02-21T09:46:28.288Z,3.70
2023-02-21T09:49:18.601Z,4.70
2023-02-21T09:52:06.450Z,4.65
2023-02-21T09:54:56.548Z,3.97
2023-02-21T09:57:41.908Z,3.45
2023-02-21T10:00:36.684Z,3.65
2023-02-21T10:03:54.599Z,4.75
2023-02-21T10:06:48.581Z,4.78
2023-02-21T10:09:45.897Z,6.72
2023-02-21T10:12:35.964Z,6.35
2023-02-21T10:15:36.642Z,6.97
2023-02-21T10:18:37.009Z,4.78
2023-02-21T10:21:26.519Z,5.10
2023-02-21T10:24:18.715Z,3.85
2023-02-21T10:27:08.592Z,4.45
2023-02-21T10:30:10.267Z,3.88
2023-02-21T10:32:56.766Z,4.25
2023-02-21T10:35:42.491Z,3.53
2023-02-21T10:38:27.926Z,1.27
2023-02-21T10:41:13.872Z,7.18
2023-02-21T10:44:22.995Z,2.78
2023-02-21T10:47:32.255Z,2.55
2023-02-21T10:50:39.744Z,5.07
2023-02-21T10:53:34.152Z,4.28
2023-02-21T10:56:23.828Z,4.18
2023-02-21T10:59:09.523Z,3.90
2023-02-21T11:01:57.752Z,3.72
2023-02-21T11:07:28.896Z,3.83
2023-02-21T11:10:35.836Z,6.22
2023-02-21T11:13:22.222Z,5.13
2023-02-21T11:16:18.217Z,7.43
2023-02-21T11:19:06.660Z,12.85
2023-02-21T11:21:56.619Z,9.18
2023-02-21T11:24:51.653Z,4.05
2023-02-21T11:27:38.479Z,10.27
2023-02-21T11:30:24.130Z,4.75
2023-02-21T11:33:10.188Z,6.82
2023-02-21T11:36:17.229Z,5.82
2023-02-21T11:39:23.411Z,5.28
2023-02-21T11:42:28.911Z,3.53
2023-02-21T11:45:22.084Z,4.07
2023-02-21T11:48:14.117Z,4.75
2023-02-21T11:51:07.383Z,6.90
2023-02-21T11:53:53.318Z,6.97
2023-02-21T11:56:57.927Z,4.65
2023-02-21T12:00:16.745Z,6.32
2023-02-21T12:03:24.510Z,3.17
2023-02-21T12:06:32.092Z,6.10
2023-02-21T12:09:46.333Z,3.33
2023-02-21T12:13:23.082Z,5.15
2023-02-21T12:16:08.683Z,5.43
2023-02-21T12:19:05.816Z,4.35
2023-02-21T12:22:16.737Z,4.80
2023-02-21T12:25:26.720Z,5.07
2023-02-21T12:28:37.687Z,5.60
2023-02-21T12:31:42.357Z,5.55
2023-02-21T12:34:46.528Z,6.38
2023-02-21T12:37:50.332Z,4.32
2023-02-21T12:41:01.820Z,3.85
2023-02-21T12:44:17.511Z,3.55
2023-02-21T12:47:25.681Z,4.75
2023-02-21T12:50:36.893Z,3.45
2023-02-21T12:53:55.560Z,3.75
2023-02-21T12:56:49.892Z,2.53
2023-02-21T12:59:50.856Z,4.75
2023-02-21T13:02:50.806Z,3.97
2023-02-21T13:05:45.346Z,2.25
2023-02-21T13:09:12.094Z,4.00
2023-02-21T13:12:07.372Z,5.20
2023-02-21T13:15:01.022Z,3.83
2023-02-21T13:17:58.827Z,5.05
2023-02-21T13:20:58.041Z,2.65
2023-02-21T13:24:00.204Z,2.85
2023-02-21T13:27:01.190Z,3.80
2023-02-21T13:29:46.921Z,4.53
2023-02-21T13:32:38.341Z,3.92
2023-02-21T13:35:41.887Z,2.90
2023-02-21T13:38:30.157Z,3.40
2023-02-21T13:41:17.086Z,4.65
2023-02-21T13:44:08.024Z,4.88
2023-02-21T13:46:53.476Z,6.78
2023-02-21T13:49:38.947Z,7.55
2023-02-21T13:52:32.278Z,4.00
2023-02-21T13:55:21.252Z,5.15
2023-02-21T13:58:07.459Z,4.43
2023-02-21T14:00:54.019Z,4.03
2023-02-21T14:03:39.554Z,5.43
2023-02-21T14:06:33.963Z,3.17
2023-02-21T14:09:19.614Z,3.17
2023-02-21T14:12:05.246Z,2.83
2023-02-21T14:14:52.666Z,4.32
2023-02-21T14:17:38.393Z,3.58
2023-02-21T14:20:23.774Z,3.75
2023-02-21T14:23:15.627Z,5.60
2023-02-21T14:26:04.113Z,5.55
2023-02-21T14:28:50.074Z,5.18
2023-02-21T14:31:51.224Z,5.40
2023-02-21T14:34:49.735Z,3.80
2023-02-21T14:38:21.978Z,6.15
2023-02-21T14:41:13.882Z,6.03
2023-02-21T14:44:35.961Z,3.47
2023-02-21T14:47:52.526Z,5.15
2023-02-21T14:51:09.507Z,2.88
2023-02-21T14:54:07.325Z,2.17
2023-02-21T14:57:08.213Z,5.15
2023-02-21T14:59:53.931Z,3.80
2023-02-21T15:03:01.462Z,3.60
2023-02-21T15:05:50.382Z,6.55
2023-02-21T15:08:48.279Z,6.40
2023-02-21T15:11:40.066Z,9.27
2023-02-21T15:14:30.936Z,8.15
2023-02-21T15:17:23.151Z,8.90
2023-02-21T15:20:18.198Z,6.38
2023-02-21T15:23:09.835Z,6.78
2023-02-21T15:25:57.518Z,7.45
2023-02-21T15:28:43.098Z,5.53
2023-02-21T15:31:28.654Z,8.35
2023-02-21T15:34:28.355Z,5.28
2023-02-21T15:37:16.677Z,10.80
2023-02-21T15:40:12.169Z,11.27
2023-02-21T15:42:58.793Z,6.18
2023-02-21T15:45:47.879Z,5.72
2023-02-21T15:48:35.187Z,8.02
2023-02-21T15:51:20.908Z,9.80
2023-02-21T15:54:10.983Z,8.40
2023-02-21T15:57:06.871Z,6.13
2023-02-21T16:00:23.546Z,6.90
2023-02-21T16:03:27.881Z,6.57
2023-02-21T16:06:19.722Z,6.68
2023-02-21T16:09:24.316Z,7.38
2023-02-21T16:12:12.959Z,11.75
2023-02-21T16:15:01.858Z,11.93
2023-02-21T16:17:53.480Z,8.93
2023-02-21T16:20:43.446Z,10.98
2023-02-21T16:23:34.623Z,10.65
2023-02-21T16:26:28.064Z,5.35
2023-02-21T16:29:13.622Z,8.45
2023-02-21T16:31:59.098Z,18.27
2023-02-21T16:34:44.694Z,7.93
2023-02-21T16:37:30.106Z,14.18
2023-02-21T16:40:22.357Z,8.60
2023-02-21T16:43:08.143Z,8.57
2023-02-21T16:45:56.569Z,11.98
2023-02-21T16:48:42.328Z,11.02
2023-02-21T16:51:33.662Z,10.18
2023-02-21T16:54:19.533Z,10.52
2023-02-21T16:57:05.216Z,8.65
2023-02-21T16:59:51.101Z,9.70
2023-02-21T17:02:37.445Z,11.02
2023-02-21T17:05:23.040Z,10.70
2023-02-21T17:08:08.420Z,10.70
2023-02-21T17:10:55.384Z,15.55
2023-02-21T17:13:40.931Z,9.80
2023-02-21T17:16:26.447Z,9.45
2023-02-21T17:19:16.492Z,11.60
2023-02-21T17:22:02.183Z,13.63
2023-02-21T17:24:47.533Z,13.98
2023-02-21T17:27:32.873Z,12.55
2023-02-21T17:30:20.944Z,10.95
2023-02-21T17:33:08.165Z,11.93
2023-02-21T17:35:53.820Z,15.05
2023-02-21T17:38:39.318Z,18.80
2023-02-21T17:41:25.020Z,14.60
2023-02-21T17:44:10.501Z,15.25
2023-02-21T17:46:57.651Z,10.88
2023-02-21T17:49:42.989Z,12.77
2023-02-21T17:52:28.389Z,12.15
2023-02-21T17:55:20.991Z,15.20
2023-02-21T17:58:06.952Z,20.15
2023-02-21T18:00:55.347Z,14.07
2023-02-21T18:03:40.767Z,16.33
2023-02-21T18:06:26.244Z,18.35
2023-02-21T18:09:11.565Z,16.95
2023-02-21T18:11:58.876Z,17.75
2023-02-21T18:14:44.775Z,58.53
2023-02-21T18:17:30.064Z,121.82
2023-02-21T18:20:16.454Z,27.23
2023-02-21T18:23:03.345Z,16.13
2023-02-21T18:25:49.275Z,14.98
2023-02-21T18:28:34.975Z,15.23
2023-02-21T18:31:20.846Z,15.85
2023-02-21T18:34:07.769Z,16.02
2023-02-21T18:36:54.417Z,14.38
2023-02-21T18:39:39.954Z,14.88
2023-02-21T18:42:25.460Z,14.95
2023-02-21T18:45:12.250Z,15.55
2023-02-21T18:47:57.671Z,18.48
2023-02-21T18:50:43.607Z,14.10
2023-02-21T18:53:29.313Z,15.60
2023-02-21T18:56:19.449Z,15.85
2023-02-21T18:59:05.431Z,25.52
2023-02-21T19:01:55.104Z,41.45
2023-02-21T19:04:43.168Z,15.05
2023-02-21T19:10:17.880Z,16.67
2023-02-21T19:13:03.388Z,17.20
2023-02-21T19:15:48.745Z,17.80
2023-02-21T19:18:34.740Z,16.30
2023-02-21T19:21:20.349Z,18.02
2023-02-21T19:24:06.353Z,17.85
2023-02-21T19:26:51.974Z,16.13
2023-02-21T19:29:37.382Z,16.63
2023-02-21T19:32:23.381Z,17.88
2023-02-21T19:35:09.365Z,17.17
2023-02-21T19:37:55.835Z,19.98
2023-02-21T19:40:41.818Z,17.13
2023-02-21T19:43:27.305Z,15.18
2023-02-21T19:46:25.034Z,19.85
2023-02-21T19:49:22.037Z,16.95
2023-02-21T19:52:07.772Z,15.90
2023-02-21T19:54:53.174Z,12.40
2023-02-21T19:57:38.602Z,22.30
2023-02-21T20:00:30.328Z,14.63
2023-02-21T20:03:15.947Z,15.70
2023-02-21T20:06:03.289Z,11.05
2023-02-21T20:08:48.986Z,9.43
2023-02-21T20:11:34.819Z,11.40
2023-02-21T20:14:20.436Z,13.65
2023-02-21T20:17:05.894Z,9.05
2023-02-21T20:19:51.327Z,13.93
2023-02-21T20:22:36.833Z,10.30
2023-02-21T20:25:22.323Z,12.55
2023-02-21T20:28:07.713Z,10.85
2023-02-21T20:30:53.216Z,11.65
2023-02-21T20:33:39.164Z,11.02
2023-02-21T20:36:33.471Z,9.77
2023-02-21T20:39:29.609Z,12.70
2023-02-21T20:42:15.297Z,7.38
2023-02-21T20:45:02.047Z,12.10
2023-02-21T20:47:48.157Z,13.65
2023-02-21T20:50:34.842Z,14.23
2023-02-21T20:53:20.242Z,13.13
2023-02-21T20:56:06.176Z,15.82
2023-02-21T20:58:51.710Z,13.52
2023-02-21T21:01:37.442Z,9.55
2023-02-21T21:04:26.740Z,17.65
2023-02-21T21:07:20.990Z,13.50
2023-02-21T21:10:14.486Z,12.15
2023-02-21T21:13:00.171Z,14.63
2023-02-21T21:15:45.712Z,12.88
2023-02-21T21:18:31.972Z,13.15
2023-02-21T21:21:24.164Z,11.93
2023-02-21T21:24:11.709Z,10.15
2023-02-21T21:27:06.326Z,15.25
2023-02-21T21:29:54.198Z,15.25
2023-02-21T21:32:44.204Z,20.52
2023-02-21T21:35:37.210Z,14.18
2023-02-21T21:38:26.424Z,21.17
2023-02-21T21:41:15.218Z,23.00
2023-02-21T21:44:01.455Z,26.05
2023-02-21T21:46:49.106Z,23.20
2023-02-21T21:49:37.349Z,18.05
2023-02-21T21:52:25.144Z,20.77
2023-02-21T21:55:17.457Z,22.02
2023-02-21T21:58:10.374Z,29.02
2023-02-21T22:00:56.155Z,34.35
2023-02-21T22:03:41.588Z,42.65
2023-02-21T22:06:26.905Z,110.65
2023-02-21T22:09:15.992Z,83.03
2023-02-21T22:12:04.742Z,115.22
2023-02-21T22:14:50.058Z,128.00
2023-02-21T22:17:40.490Z,115.65
2023-02-21T22:20:36.954Z,131.00
2023-02-21T22:23:24.457Z,155.23
2023-02-21T22:26:17.577Z,136.40
2023-02-21T22:29:06.087Z,131.68
2023-02-21T22:31:56.541Z,123.13
2023-02-21T22:34:45.754Z,127.85
2023-02-21T22:37:36.149Z,124.70
2023-02-21T22:40:24.886Z,123.03
2023-02-21T22:43:10.634Z,128.77
2023-02-21T22:45:58.253Z,146.75
2023-02-21T22:48:47.740Z,132.23
2023-02-21T22:51:33.572Z,139.00
2023-02-21T22:54:19.211Z,138.55
2023-02-21T22:57:07.272Z,150.80
2023-02-21T22:59:57.779Z,137.00
2023-02-21T23:02:46.697Z,138.98
2023-02-21T23:05:32.547Z,147.45
2023-02-21T23:08:22.795Z,164.63
2023-02-21T23:11:08.660Z,153.50
2023-02-21T23:13:54.159Z,161.75
2023-02-21T23:16:40.127Z,145.68
2023-02-21T23:19:28.123Z,147.25
2023-02-21T23:22:15.427Z,138.65
2023-02-21T23:25:01.133Z,145.88
2023-02-21T23:27:48.301Z,147.65
2023-02-21T23:30:43.018Z,133.35
2023-02-21T23:33:30.404Z,139.93
2023-02-21T23:36:22.836Z,138.93
2023-02-21T23:39:09.715Z,133.55
2023-02-21T23:41:58.801Z,137.48
2023-02-21T23:44:45.250Z,141.20
2023-02-21T23:47:31.848Z,142.95
2023-02-21T23:50:19.532Z,131.93
2023-02-21T23:53:06.445Z,143.18
2023-02-21T23:55:57.034Z,157.18
2023-02-21T23:58:45.095Z,151.35
